sensor_id;sensor_type;location;lat;lon;timestamp;P1;durP1;ratioP1;P2;durP2;ratioP2
22268;SDS011;11303;50.772;19.670;2023-03-23T00:01:22;28.80;;;18.33;;
22268;SDS011;11303;50.772;19.670;2023-03-23T00:03:22;35.25;;;19.90;;
22268;SDS011;11303;50.772;19.670;2023-03-23T00:05:26;28.23;;;17.35;;
22268;SDS011;11303;50.772;19.670;2023-03-23T00:07:29;27.20;;;17.48;;
22268;SDS011;11303;50.772;19.670;2023-03-23T00:09:29;27.00;;;16.17;;
22268;SDS011;11303;50.772;19.670;2023-03-23T00:11:34;28.67;;;17.50;;
22268;SDS011;11303;50.772;19.670;2023-03-23T00:13:34;27.17;;;16.90;;
22268;SDS011;11303;50.772;19.670;2023-03-23T00:15:35;23.73;;;16.08;;
22268;SDS011;11303;50.772;19.670;2023-03-23T00:17:35;39.42;;;21.88;;
22268;SDS011;11303;50.772;19.670;2023-03-23T00:19:36;27.25;;;16.13;;
22268;SDS011;11303;50.772;19.670;2023-03-23T00:21:45;83.38;;;40.03;;
22268;SDS011;11303;50.772;19.670;2023-03-23T00:23:46;24.92;;;16.88;;
22268;SDS011;11303;50.772;19.670;2023-03-23T00:25:46;25.33;;;17.25;;
22268;SDS011;11303;50.772;19.670;2023-03-23T00:27:47;28.55;;;16.38;;
22268;SDS011;11303;50.772;19.670;2023-03-23T00:29:48;26.75;;;17.20;;
22268;SDS011;11303;50.772;19.670;2023-03-23T00:31:52;26.90;;;16.65;;
22268;SDS011;11303;50.772;19.670;2023-03-23T00:33:52;23.80;;;15.27;;
22268;SDS011;11303;50.772;19.670;2023-03-23T00:35:53;25.40;;;15.65;;
22268;SDS011;11303;50.772;19.670;2023-03-23T00:37:54;25.20;;;16.50;;
22268;SDS011;11303;50.772;19.670;2023-03-23T00:39:55;28.77;;;18.05;;
22268;SDS011;11303;50.772;19.670;2023-03-23T00:41:57;28.80;;;17.73;;
22268;SDS011;11303;50.772;19.670;2023-03-23T00:44:00;26.02;;;16.25;;
22268;SDS011;11303;50.772;19.670;2023-03-23T00:46:01;28.63;;;17.17;;
22268;SDS011;11303;50.772;19.670;2023-03-23T00:48:02;29.80;;;16.83;;
22268;SDS011;11303;50.772;19.670;2023-03-23T00:50:03;26.60;;;15.52;;
22268;SDS011;11303;50.772;19.670;2023-03-23T00:52:05;21.90;;;14.63;;
22268;SDS011;11303;50.772;19.670;2023-03-23T00:54:06;30.58;;;17.20;;
22268;SDS011;11303;50.772;19.670;2023-03-23T00:56:07;32.15;;;17.60;;
22268;SDS011;11303;50.772;19.670;2023-03-23T00:58:08;31.95;;;16.88;;
22268;SDS011;11303;50.772;19.670;2023-03-23T01:00:09;27.75;;;16.02;;
22268;SDS011;11303;50.772;19.670;2023-03-23T01:02:11;28.27;;;16.42;;
22268;SDS011;11303;50.772;19.670;2023-03-23T01:04:11;30.73;;;18.77;;
22268;SDS011;11303;50.772;19.670;2023-03-23T01:06:12;26.15;;;16.55;;
22268;SDS011;11303;50.772;19.670;2023-03-23T01:08:13;31.80;;;18.45;;
22268;SDS011;11303;50.772;19.670;2023-03-23T01:10:14;34.17;;;19.20;;
22268;SDS011;11303;50.772;19.670;2023-03-23T01:12:18;28.60;;;17.35;;
22268;SDS011;11303;50.772;19.670;2023-03-23T01:14:19;31.58;;;17.65;;
22268;SDS011;11303;50.772;19.670;2023-03-23T01:16:20;33.38;;;17.90;;
22268;SDS011;11303;50.772;19.670;2023-03-23T01:18:20;30.73;;;17.08;;
22268;SDS011;11303;50.772;19.670;2023-03-23T01:20:21;26.63;;;16.63;;
22268;SDS011;11303;50.772;19.670;2023-03-23T01:22:22;31.65;;;18.83;;
22268;SDS011;11303;50.772;19.670;2023-03-23T01:24:22;27.33;;;16.08;;
22268;SDS011;11303;50.772;19.670;2023-03-23T01:26:24;29.17;;;16.80;;
22268;SDS011;11303;50.772;19.670;2023-03-23T01:28:24;28.08;;;16.50;;
22268;SDS011;11303;50.772;19.670;2023-03-23T01:30:25;31.92;;;16.63;;
22268;SDS011;11303;50.772;19.670;2023-03-23T01:32:26;30.55;;;19.77;;
22268;SDS011;11303;50.772;19.670;2023-03-23T01:34:26;28.08;;;20.70;;
22268;SDS011;11303;50.772;19.670;2023-03-23T01:36:27;30.98;;;19.33;;
22268;SDS011;11303;50.772;19.670;2023-03-23T01:38:28;26.70;;;16.23;;
22268;SDS011;11303;50.772;19.670;2023-03-23T01:40:29;28.48;;;15.82;;
22268;SDS011;11303;50.772;19.670;2023-03-23T01:42:31;22.23;;;15.32;;
22268;SDS011;11303;50.772;19.670;2023-03-23T01:46:34;26.73;;;17.25;;
22268;SDS011;11303;50.772;19.670;2023-03-23T01:48:35;27.77;;;17.13;;
22268;SDS011;11303;50.772;19.670;2023-03-23T01:50:42;34.47;;;18.70;;
22268;SDS011;11303;50.772;19.670;2023-03-23T01:52:44;29.23;;;18.38;;
22268;SDS011;11303;50.772;19.670;2023-03-23T01:54:45;34.22;;;18.58;;
22268;SDS011;11303;50.772;19.670;2023-03-23T01:57:20;24.35;;;17.13;;
22268;SDS011;11303;50.772;19.670;2023-03-23T01:59:13;27.27;;;17.17;;
22268;SDS011;11303;50.772;19.670;2023-03-23T02:01:15;27.17;;;17.45;;
22268;SDS011;11303;50.772;19.670;2023-03-23T02:03:16;30.30;;;18.30;;
22268;SDS011;11303;50.772;19.670;2023-03-23T02:05:20;28.23;;;16.83;;
22268;SDS011;11303;50.772;19.670;2023-03-23T02:07:21;27.67;;;17.05;;
22268;SDS011;11303;50.772;19.670;2023-03-23T02:09:26;30.08;;;17.63;;
22268;SDS011;11303;50.772;19.670;2023-03-23T02:11:26;26.88;;;17.35;;
22268;SDS011;11303;50.772;19.670;2023-03-23T02:13:27;30.38;;;18.33;;
22268;SDS011;11303;50.772;19.670;2023-03-23T02:15:28;27.30;;;17.10;;
22268;SDS011;11303;50.772;19.670;2023-03-23T02:17:37;28.35;;;17.77;;
22268;SDS011;11303;50.772;19.670;2023-03-23T02:24:23;27.48;;;17.30;;
22268;SDS011;11303;50.772;19.670;2023-03-23T02:28:36;23.92;;;16.17;;
22268;SDS011;11303;50.772;19.670;2023-03-23T02:32:46;25.67;;;16.85;;
22268;SDS011;11303;50.772;19.670;2023-03-23T02:34:59;27.58;;;17.38;;
22268;SDS011;11303;50.772;19.670;2023-03-23T02:39:21;27.33;;;16.70;;
22268;SDS011;11303;50.772;19.670;2023-03-23T02:41:24;28.98;;;17.10;;
22268;SDS011;11303;50.772;19.670;2023-03-23T02:43:26;23.90;;;16.27;;
22268;SDS011;11303;50.772;19.670;2023-03-23T02:45:28;30.45;;;16.30;;
22268;SDS011;11303;50.772;19.670;2023-03-23T02:47:29;26.42;;;16.58;;
22268;SDS011;11303;50.772;19.670;2023-03-23T02:49:29;27.48;;;16.45;;
22268;SDS011;11303;50.772;19.670;2023-03-23T02:51:32;24.27;;;16.65;;
22268;SDS011;11303;50.772;19.670;2023-03-23T02:53:34;24.83;;;16.85;;
22268;SDS011;11303;50.772;19.670;2023-03-23T02:55:37;23.77;;;16.25;;
22268;SDS011;11303;50.772;19.670;2023-03-23T02:57:41;26.77;;;16.40;;
22268;SDS011;11303;50.772;19.670;2023-03-23T02:59:44;29.27;;;16.50;;
22268;SDS011;11303;50.772;19.670;2023-03-23T03:01:48;24.23;;;15.75;;
22268;SDS011;11303;50.772;19.670;2023-03-23T03:03:49;26.15;;;16.88;;
22268;SDS011;11303;50.772;19.670;2023-03-23T03:06:09;26.70;;;16.40;;
22268;SDS011;11303;50.772;19.670;2023-03-23T03:10:25;24.92;;;16.00;;
22268;SDS011;11303;50.772;19.670;2023-03-23T03:12:37;31.42;;;16.83;;
22268;SDS011;11303;50.772;19.670;2023-03-23T03:14:40;21.15;;;14.63;;
22268;SDS011;11303;50.772;19.670;2023-03-23T03:16:57;23.27;;;15.77;;
22268;SDS011;11303;50.772;19.670;2023-03-23T03:19:05;29.48;;;15.95;;
22268;SDS011;11303;50.772;19.670;2023-03-23T03:21:07;28.33;;;16.08;;
22268;SDS011;11303;50.772;19.670;2023-03-23T03:23:09;24.42;;;14.68;;
22268;SDS011;11303;50.772;19.670;2023-03-23T03:25:12;24.38;;;15.68;;
22268;SDS011;11303;50.772;19.670;2023-03-23T03:27:15;32.05;;;15.13;;
22268;SDS011;11303;50.772;19.670;2023-03-23T03:29:18;24.05;;;14.93;;
22268;SDS011;11303;50.772;19.670;2023-03-23T03:31:19;28.42;;;20.77;;
22268;SDS011;11303;50.772;19.670;2023-03-23T03:33:21;26.63;;;18.25;;
22268;SDS011;11303;50.772;19.670;2023-03-23T03:35:25;151.65;;;73.85;;
22268;SDS011;11303;50.772;19.670;2023-03-23T03:37:26;37.00;;;18.63;;
22268;SDS011;11303;50.772;19.670;2023-03-23T03:39:27;31.30;;;18.27;;
22268;SDS011;11303;50.772;19.670;2023-03-23T03:41:27;42.40;;;24.38;;
22268;SDS011;11303;50.772;19.670;2023-03-23T03:43:27;36.17;;;22.20;;
22268;SDS011;11303;50.772;19.670;2023-03-23T03:45:28;30.00;;;19.88;;
22268;SDS011;11303;50.772;19.670;2023-03-23T03:47:28;53.75;;;33.58;;
22268;SDS011;11303;50.772;19.670;2023-03-23T03:49:29;47.47;;;29.05;;
22268;SDS011;11303;50.772;19.670;2023-03-23T03:51:29;41.22;;;25.52;;
22268;SDS011;11303;50.772;19.670;2023-03-23T03:53:30;37.53;;;23.60;;
22268;SDS011;11303;50.772;19.670;2023-03-23T03:55:31;34.60;;;22.48;;
22268;SDS011;11303;50.772;19.670;2023-03-23T03:57:35;35.22;;;21.73;;
22268;SDS011;11303;50.772;19.670;2023-03-23T03:59:35;33.90;;;19.20;;
22268;SDS011;11303;50.772;19.670;2023-03-23T04:01:36;34.83;;;20.45;;
22268;SDS011;11303;50.772;19.670;2023-03-23T04:03:37;42.30;;;21.30;;
22268;SDS011;11303;50.772;19.670;2023-03-23T04:05:38;40.38;;;22.15;;
22268;SDS011;11303;50.772;19.670;2023-03-23T04:07:38;35.78;;;19.42;;
22268;SDS011;11303;50.772;19.670;2023-03-23T04:09:40;26.13;;;16.83;;
22268;SDS011;11303;50.772;19.670;2023-03-23T04:11:40;31.48;;;17.25;;
22268;SDS011;11303;50.772;19.670;2023-03-23T04:13:41;29.02;;;18.05;;
22268;SDS011;11303;50.772;19.670;2023-03-23T04:15:41;26.48;;;16.58;;
22268;SDS011;11303;50.772;19.670;2023-03-23T04:17:41;28.33;;;17.20;;
22268;SDS011;11303;50.772;19.670;2023-03-23T04:19:42;26.70;;;16.65;;
22268;SDS011;11303;50.772;19.670;2023-03-23T04:21:42;23.33;;;16.85;;
22268;SDS011;11303;50.772;19.670;2023-03-23T04:23:43;28.75;;;18.20;;
22268;SDS011;11303;50.772;19.670;2023-03-23T04:25:43;29.75;;;18.45;;
22268;SDS011;11303;50.772;19.670;2023-03-23T04:27:44;34.35;;;22.42;;
22268;SDS011;11303;50.772;19.670;2023-03-23T04:29:46;35.25;;;22.45;;
22268;SDS011;11303;50.772;19.670;2023-03-23T04:31:48;32.45;;;22.90;;
22268;SDS011;11303;50.772;19.670;2023-03-23T04:33:51;47.55;;;24.52;;
22268;SDS011;11303;50.772;19.670;2023-03-23T04:35:55;36.13;;;21.98;;
22268;SDS011;11303;50.772;19.670;2023-03-23T04:37:56;35.63;;;22.08;;
22268;SDS011;11303;50.772;19.670;2023-03-23T04:39:57;41.67;;;26.35;;
22268;SDS011;11303;50.772;19.670;2023-03-23T04:42:01;54.30;;;32.58;;
22268;SDS011;11303;50.772;19.670;2023-03-23T04:44:01;45.47;;;28.50;;
22268;SDS011;11303;50.772;19.670;2023-03-23T04:46:02;47.85;;;28.75;;
22268;SDS011;11303;50.772;19.670;2023-03-23T04:48:03;34.78;;;22.40;;
22268;SDS011;11303;50.772;19.670;2023-03-23T04:50:05;39.95;;;22.92;;
22268;SDS011;11303;50.772;19.670;2023-03-23T04:52:06;55.47;;;29.05;;
22268;SDS011;11303;50.772;19.670;2023-03-23T04:54:07;89.10;;;41.50;;
22268;SDS011;11303;50.772;19.670;2023-03-23T04:56:07;86.72;;;41.58;;
22268;SDS011;11303;50.772;19.670;2023-03-23T04:58:07;67.38;;;34.85;;
22268;SDS011;11303;50.772;19.670;2023-03-23T05:00:08;50.75;;;26.48;;
22268;SDS011;11303;50.772;19.670;2023-03-23T05:02:09;45.28;;;23.02;;
22268;SDS011;11303;50.772;19.670;2023-03-23T05:04:10;36.10;;;21.67;;
22268;SDS011;11303;50.772;19.670;2023-03-23T05:06:10;41.47;;;24.85;;
22268;SDS011;11303;50.772;19.670;2023-03-23T05:08:11;39.20;;;20.88;;
22268;SDS011;11303;50.772;19.670;2023-03-23T05:10:11;32.83;;;20.20;;
22268;SDS011;11303;50.772;19.670;2023-03-23T05:12:12;33.38;;;18.95;;
22268;SDS011;11303;50.772;19.670;2023-03-23T05:14:12;35.15;;;19.13;;
22268;SDS011;11303;50.772;19.670;2023-03-23T05:16:13;31.00;;;18.85;;
22268;SDS011;11303;50.772;19.670;2023-03-23T05:18:13;30.75;;;18.73;;
22268;SDS011;11303;50.772;19.670;2023-03-23T05:20:15;35.30;;;19.95;;
22268;SDS011;11303;50.772;19.670;2023-03-23T05:22:19;38.70;;;20.88;;
22268;SDS011;11303;50.772;19.670;2023-03-23T05:24:20;35.17;;;20.65;;
22268;SDS011;11303;50.772;19.670;2023-03-23T05:26:21;31.00;;;19.55;;
22268;SDS011;11303;50.772;19.670;2023-03-23T05:28:22;32.97;;;18.55;;
22268;SDS011;11303;50.772;19.670;2023-03-23T05:30:22;30.98;;;18.80;;
22268;SDS011;11303;50.772;19.670;2023-03-23T05:32:23;36.90;;;19.63;;
22268;SDS011;11303;50.772;19.670;2023-03-23T05:34:28;34.67;;;17.50;;
22268;SDS011;11303;50.772;19.670;2023-03-23T05:36:29;35.75;;;21.20;;
22268;SDS011;11303;50.772;19.670;2023-03-23T05:38:29;41.28;;;22.02;;
22268;SDS011;11303;50.772;19.670;2023-03-23T05:40:31;33.42;;;20.10;;
22268;SDS011;11303;50.772;19.670;2023-03-23T05:42:32;29.38;;;17.98;;
22268;SDS011;11303;50.772;19.670;2023-03-23T05:44:32;33.38;;;17.15;;
22268;SDS011;11303;50.772;19.670;2023-03-23T05:46:33;30.92;;;17.00;;
22268;SDS011;11303;50.772;19.670;2023-03-23T05:48:34;31.02;;;17.13;;
22268;SDS011;11303;50.772;19.670;2023-03-23T05:50:34;23.45;;;15.57;;
22268;SDS011;11303;50.772;19.670;2023-03-23T05:52:35;29.02;;;16.67;;
22268;SDS011;11303;50.772;19.670;2023-03-23T05:54:36;28.50;;;16.02;;
22268;SDS011;11303;50.772;19.670;2023-03-23T05:56:37;31.67;;;16.85;;
22268;SDS011;11303;50.772;19.670;2023-03-23T05:58:37;28.48;;;16.58;;
22268;SDS011;11303;50.772;19.670;2023-03-23T06:00:37;28.08;;;16.48;;
22268;SDS011;11303;50.772;19.670;2023-03-23T06:02:39;31.15;;;16.13;;
22268;SDS011;11303;50.772;19.670;2023-03-23T06:04:40;23.88;;;15.40;;
22268;SDS011;11303;50.772;19.670;2023-03-23T06:06:41;25.33;;;14.68;;
22268;SDS011;11303;50.772;19.670;2023-03-23T06:08:41;21.98;;;14.07;;
22268;SDS011;11303;50.772;19.670;2023-03-23T06:10:42;24.05;;;13.82;;
22268;SDS011;11303;50.772;19.670;2023-03-23T06:12:44;24.38;;;14.38;;
22268;SDS011;11303;50.772;19.670;2023-03-23T06:14:44;20.42;;;12.85;;
22268;SDS011;11303;50.772;19.670;2023-03-23T06:16:45;23.70;;;12.55;;
22268;SDS011;11303;50.772;19.670;2023-03-23T06:18:45;22.63;;;13.25;;
22268;SDS011;11303;50.772;19.670;2023-03-23T06:20:46;21.15;;;12.73;;
22268;SDS011;11303;50.772;19.670;2023-03-23T06:22:46;20.40;;;12.80;;
22268;SDS011;11303;50.772;19.670;2023-03-23T06:24:47;21.67;;;12.73;;
22268;SDS011;11303;50.772;19.670;2023-03-23T06:26:49;24.92;;;13.75;;
22268;SDS011;11303;50.772;19.670;2023-03-23T06:28:50;20.17;;;13.13;;
22268;SDS011;11303;50.772;19.670;2023-03-23T06:30:50;23.70;;;13.25;;
22268;SDS011;11303;50.772;19.670;2023-03-23T06:32:53;22.15;;;12.93;;
22268;SDS011;11303;50.772;19.670;2023-03-23T06:34:53;20.35;;;13.30;;
22268;SDS011;11303;50.772;19.670;2023-03-23T06:36:54;21.02;;;13.02;;
22268;SDS011;11303;50.772;19.670;2023-03-23T06:38:54;24.40;;;14.02;;
22268;SDS011;11303;50.772;19.670;2023-03-23T06:40:55;21.33;;;13.40;;
22268;SDS011;11303;50.772;19.670;2023-03-23T06:42:57;25.65;;;14.98;;
22268;SDS011;11303;50.772;19.670;2023-03-23T06:44:59;19.42;;;13.32;;
22268;SDS011;11303;50.772;19.670;2023-03-23T06:47:00;20.83;;;13.40;;
22268;SDS011;11303;50.772;19.670;2023-03-23T06:49:02;26.20;;;13.27;;
22268;SDS011;11303;50.772;19.670;2023-03-23T06:51:03;20.55;;;12.25;;
22268;SDS011;11303;50.772;19.670;2023-03-23T06:53:04;23.92;;;11.63;;
22268;SDS011;11303;50.772;19.670;2023-03-23T06:55:05;18.70;;;11.90;;
22268;SDS011;11303;50.772;19.670;2023-03-23T06:57:05;20.35;;;10.27;;
22268;SDS011;11303;50.772;19.670;2023-03-23T06:59:06;18.33;;;10.63;;
22268;SDS011;11303;50.772;19.670;2023-03-23T07:01:07;18.77;;;10.70;;
22268;SDS011;11303;50.772;19.670;2023-03-23T07:03:08;22.30;;;11.02;;
22268;SDS011;11303;50.772;19.670;2023-03-23T07:05:09;19.38;;;11.05;;
22268;SDS011;11303;50.772;19.670;2023-03-23T07:07:10;17.33;;;12.10;;
22268;SDS011;11303;50.772;19.670;2023-03-23T07:09:11;18.08;;;10.32;;
22268;SDS011;11303;50.772;19.670;2023-03-23T07:11:11;18.23;;;10.50;;
22268;SDS011;11303;50.772;19.670;2023-03-23T07:13:12;19.50;;;11.07;;
22268;SDS011;11303;50.772;19.670;2023-03-23T07:15:13;18.63;;;10.75;;
22268;SDS011;11303;50.772;19.670;2023-03-23T07:17:14;20.20;;;11.50;;
22268;SDS011;11303;50.772;19.670;2023-03-23T07:19:14;23.38;;;12.48;;
22268;SDS011;11303;50.772;19.670;2023-03-23T07:21:15;17.52;;;10.88;;
22268;SDS011;11303;50.772;19.670;2023-03-23T07:23:15;17.80;;;12.07;;
22268;SDS011;11303;50.772;19.670;2023-03-23T07:25:16;17.30;;;11.23;;
22268;SDS011;11303;50.772;19.670;2023-03-23T07:27:17;16.38;;;11.32;;
22268;SDS011;11303;50.772;19.670;2023-03-23T07:29:17;15.60;;;10.70;;
22268;SDS011;11303;50.772;19.670;2023-03-23T07:31:18;21.73;;;10.77;;
22268;SDS011;11303;50.772;19.670;2023-03-23T07:33:18;23.00;;;11.13;;
22268;SDS011;11303;50.772;19.670;2023-03-23T07:35:19;14.82;;;9.45;;
22268;SDS011;11303;50.772;19.670;2023-03-23T07:37:19;18.67;;;11.02;;
22268;SDS011;11303;50.772;19.670;2023-03-23T07:39:19;15.60;;;9.43;;
22268;SDS011;11303;50.772;19.670;2023-03-23T07:41:20;17.55;;;10.48;;
22268;SDS011;11303;50.772;19.670;2023-03-23T07:43:20;18.17;;;11.25;;
22268;SDS011;11303;50.772;19.670;2023-03-23T07:45:21;19.83;;;10.25;;
22268;SDS011;11303;50.772;19.670;2023-03-23T07:47:22;19.95;;;10.32;;
22268;SDS011;11303;50.772;19.670;2023-03-23T07:49:25;20.35;;;10.68;;
22268;SDS011;11303;50.772;19.670;2023-03-23T07:51:26;18.30;;;10.15;;
22268;SDS011;11303;50.772;19.670;2023-03-23T07:53:28;17.58;;;10.32;;
22268;SDS011;11303;50.772;19.670;2023-03-23T07:55:28;16.60;;;9.60;;
22268;SDS011;11303;50.772;19.670;2023-03-23T07:57:29;18.63;;;10.38;;
22268;SDS011;11303;50.772;19.670;2023-03-23T07:59:30;17.00;;;9.52;;
22268;SDS011;11303;50.772;19.670;2023-03-23T08:01:31;17.23;;;9.35;;
22268;SDS011;11303;50.772;19.670;2023-03-23T08:03:32;14.55;;;9.20;;
22268;SDS011;11303;50.772;19.670;2023-03-23T08:05:33;13.65;;;9.02;;
22268;SDS011;11303;50.772;19.670;2023-03-23T08:07:34;15.38;;;10.18;;
22268;SDS011;11303;50.772;19.670;2023-03-23T08:09:38;16.98;;;10.45;;
22268;SDS011;11303;50.772;19.670;2023-03-23T08:11:41;20.45;;;10.30;;
22268;SDS011;11303;50.772;19.670;2023-03-23T08:13:41;18.33;;;10.70;;
22268;SDS011;11303;50.772;19.670;2023-03-23T08:15:42;16.00;;;9.38;;
22268;SDS011;11303;50.772;19.670;2023-03-23T08:17:43;18.42;;;9.90;;
22268;SDS011;11303;50.772;19.670;2023-03-23T08:19:44;16.95;;;10.07;;
22268;SDS011;11303;50.772;19.670;2023-03-23T08:21:46;17.05;;;8.95;;
22268;SDS011;11303;50.772;19.670;2023-03-23T08:23:46;12.85;;;9.02;;
22268;SDS011;11303;50.772;19.670;2023-03-23T08:25:47;11.60;;;8.57;;
22268;SDS011;11303;50.772;19.670;2023-03-23T08:27:47;12.95;;;8.38;;
22268;SDS011;11303;50.772;19.670;2023-03-23T08:29:48;10.63;;;7.43;;
22268;SDS011;11303;50.772;19.670;2023-03-23T08:31:51;12.35;;;8.25;;
22268;SDS011;11303;50.772;19.670;2023-03-23T08:33:51;12.05;;;7.88;;
22268;SDS011;11303;50.772;19.670;2023-03-23T08:35:56;14.73;;;7.25;;
22268;SDS011;11303;50.772;19.670;2023-03-23T08:37:56;11.00;;;7.28;;
22268;SDS011;11303;50.772;19.670;2023-03-23T08:39:57;11.60;;;6.93;;
22268;SDS011;11303;50.772;19.670;2023-03-23T08:41:58;12.85;;;6.97;;
22268;SDS011;11303;50.772;19.670;2023-03-23T08:43:58;12.98;;;8.00;;
22268;SDS011;11303;50.772;19.670;2023-03-23T08:45:58;14.45;;;7.97;;
22268;SDS011;11303;50.772;19.670;2023-03-23T08:47:59;12.30;;;8.00;;
22268;SDS011;11303;50.772;19.670;2023-03-23T08:50:00;11.73;;;7.85;;
22268;SDS011;11303;50.772;19.670;2023-03-23T08:52:00;12.63;;;8.70;;
22268;SDS011;11303;50.772;19.670;2023-03-23T08:54:01;9.68;;;7.78;;
22268;SDS011;11303;50.772;19.670;2023-03-23T08:56:09;12.80;;;8.68;;
22268;SDS011;11303;50.772;19.670;2023-03-23T08:58:09;15.70;;;9.80;;
22268;SDS011;11303;50.772;19.670;2023-03-23T09:00:11;14.65;;;9.80;;
22268;SDS011;11303;50.772;19.670;2023-03-23T09:02:17;13.90;;;9.45;;
22268;SDS011;11303;50.772;19.670;2023-03-23T09:04:18;17.02;;;9.48;;
22268;SDS011;11303;50.772;19.670;2023-03-23T09:06:18;13.55;;;8.95;;
22268;SDS011;11303;50.772;19.670;2023-03-23T09:08:18;13.90;;;8.63;;
22268;SDS011;11303;50.772;19.670;2023-03-23T09:10:19;15.48;;;8.75;;
22268;SDS011;11303;50.772;19.670;2023-03-23T09:12:19;12.65;;;8.35;;
22268;SDS011;11303;50.772;19.670;2023-03-23T09:14:20;14.48;;;8.75;;
22268;SDS011;11303;50.772;19.670;2023-03-23T09:16:20;14.93;;;8.45;;
22268;SDS011;11303;50.772;19.670;2023-03-23T09:18:21;14.95;;;8.40;;
22268;SDS011;11303;50.772;19.670;2023-03-23T09:20:23;12.35;;;8.45;;
22268;SDS011;11303;50.772;19.670;2023-03-23T09:22:23;15.35;;;8.48;;
22268;SDS011;11303;50.772;19.670;2023-03-23T09:24:24;17.27;;;8.45;;
22268;SDS011;11303;50.772;19.670;2023-03-23T09:26:26;14.75;;;8.02;;
22268;SDS011;11303;50.772;19.670;2023-03-23T09:28:27;16.73;;;10.00;;
22268;SDS011;11303;50.772;19.670;2023-03-23T09:30:28;12.15;;;7.78;;
22268;SDS011;11303;50.772;19.670;2023-03-23T09:32:29;12.20;;;8.48;;
22268;SDS011;11303;50.772;19.670;2023-03-23T09:34:29;12.38;;;8.32;;
22268;SDS011;11303;50.772;19.670;2023-03-23T09:36:30;20.60;;;10.77;;
22268;SDS011;11303;50.772;19.670;2023-03-23T09:38:31;12.30;;;7.32;;
22268;SDS011;11303;50.772;19.670;2023-03-23T09:40:48;14.25;;;6.88;;
22268;SDS011;11303;50.772;19.670;2023-03-23T09:43:02;15.05;;;8.43;;
22268;SDS011;11303;50.772;19.670;2023-03-23T09:49:23;14.32;;;7.40;;
22268;SDS011;11303;50.772;19.670;2023-03-23T09:51:41;13.75;;;8.15;;
22268;SDS011;11303;50.772;19.670;2023-03-23T09:53:44;13.32;;;7.50;;
22268;SDS011;11303;50.772;19.670;2023-03-23T09:55:47;10.10;;;6.72;;
22268;SDS011;11303;50.772;19.670;2023-03-23T09:57:59;11.52;;;6.75;;
22268;SDS011;11303;50.772;19.670;2023-03-23T10:00:03;12.45;;;6.88;;
22268;SDS011;11303;50.772;19.670;2023-03-23T10:02:18;13.38;;;7.68;;
22268;SDS011;11303;50.772;19.670;2023-03-23T10:04:24;12.60;;;7.10;;
22268;SDS011;11303;50.772;19.670;2023-03-23T10:06:25;12.63;;;7.60;;
22268;SDS011;11303;50.772;19.670;2023-03-23T10:08:27;15.77;;;8.20;;
22268;SDS011;11303;50.772;19.670;2023-03-23T10:10:37;11.50;;;6.57;;
22268;SDS011;11303;50.772;19.670;2023-03-23T10:12:42;16.10;;;7.13;;
22268;SDS011;11303;50.772;19.670;2023-03-23T10:17:15;15.25;;;8.45;;
22268;SDS011;11303;50.772;19.670;2023-03-23T10:19:25;9.63;;;6.25;;
22268;SDS011;11303;50.772;19.670;2023-03-23T10:21:27;12.55;;;6.32;;
22268;SDS011;11303;50.772;19.670;2023-03-23T10:25:34;10.65;;;6.05;;
22268;SDS011;11303;50.772;19.670;2023-03-23T10:29:36;11.68;;;5.57;;
22268;SDS011;11303;50.772;19.670;2023-03-23T10:31:39;23.65;;;9.30;;
22268;SDS011;11303;50.772;19.670;2023-03-23T10:33:42;8.13;;;5.38;;
22268;SDS011;11303;50.772;19.670;2023-03-23T10:35:45;15.75;;;6.32;;
22268;SDS011;11303;50.772;19.670;2023-03-23T10:37:49;13.88;;;7.10;;
22268;SDS011;11303;50.772;19.670;2023-03-23T10:39:54;10.32;;;5.90;;
22268;SDS011;11303;50.772;19.670;2023-03-23T10:41:55;14.18;;;8.07;;
22268;SDS011;11303;50.772;19.670;2023-03-23T10:43:55;10.20;;;5.43;;
22268;SDS011;11303;50.772;19.670;2023-03-23T10:46:10;9.75;;;5.97;;
22268;SDS011;11303;50.772;19.670;2023-03-23T10:48:29;8.18;;;5.32;;
22268;SDS011;11303;50.772;19.670;2023-03-23T10:50:34;11.70;;;6.60;;
22268;SDS011;11303;50.772;19.670;2023-03-23T10:52:36;11.75;;;5.60;;
22268;SDS011;11303;50.772;19.670;2023-03-23T10:54:39;38.45;;;21.95;;
22268;SDS011;11303;50.772;19.670;2023-03-23T10:56:42;14.10;;;8.35;;
22268;SDS011;11303;50.772;19.670;2023-03-23T10:58:44;14.73;;;10.93;;
22268;SDS011;11303;50.772;19.670;2023-03-23T11:00:45;63.80;;;38.83;;
22268;SDS011;11303;50.772;19.670;2023-03-23T11:05:00;12.60;;;5.07;;
22268;SDS011;11303;50.772;19.670;2023-03-23T11:07:01;9.70;;;5.10;;
22268;SDS011;11303;50.772;19.670;2023-03-23T11:09:11;17.05;;;4.05;;
22268;SDS011;11303;50.772;19.670;2023-03-23T11:13:13;12.15;;;8.30;;
22268;SDS011;11303;50.772;19.670;2023-03-23T11:15:25;11.93;;;6.50;;
22268;SDS011;11303;50.772;19.670;2023-03-23T11:17:26;12.70;;;7.78;;
22268;SDS011;11303;50.772;19.670;2023-03-23T11:19:28;29.05;;;18.02;;
22268;SDS011;11303;50.772;19.670;2023-03-23T11:21:29;9.90;;;4.97;;
22268;SDS011;11303;50.772;19.670;2023-03-23T11:23:33;11.65;;;6.38;;
22268;SDS011;11303;50.772;19.670;2023-03-23T11:25:39;18.95;;;11.45;;
22268;SDS011;11303;50.772;19.670;2023-03-23T11:27:46;6.90;;;4.50;;
22268;SDS011;11303;50.772;19.670;2023-03-23T11:31:48;8.68;;;6.47;;
22268;SDS011;11303;50.772;19.670;2023-03-23T11:34:00;5.82;;;3.50;;
22268;SDS011;11303;50.772;19.670;2023-03-23T11:36:01;8.13;;;3.58;;
22268;SDS011;11303;50.772;19.670;2023-03-23T11:38:02;6.97;;;3.30;;
22268;SDS011;11303;50.772;19.670;2023-03-23T11:42:13;7.38;;;4.35;;
22268;SDS011;11303;50.772;19.670;2023-03-23T11:44:17;8.55;;;4.97;;
22268;SDS011;11303;50.772;19.670;2023-03-23T11:46:22;7.22;;;4.00;;
22268;SDS011;11303;50.772;19.670;2023-03-23T11:50:34;8.02;;;5.45;;
22268;SDS011;11303;50.772;19.670;2023-03-23T11:54:50;6.63;;;4.18;;
22268;SDS011;11303;50.772;19.670;2023-03-23T11:56:52;6.10;;;3.08;;
22268;SDS011;11303;50.772;19.670;2023-03-23T11:58:56;7.60;;;4.03;;
22268;SDS011;11303;50.772;19.670;2023-03-23T12:00:57;4.90;;;2.67;;
22268;SDS011;11303;50.772;19.670;2023-03-23T12:05:34;6.53;;;3.38;;
22268;SDS011;11303;50.772;19.670;2023-03-23T12:12:26;14.82;;;9.20;;
22268;SDS011;11303;50.772;19.670;2023-03-23T12:16:58;7.35;;;4.10;;
22268;SDS011;11303;50.772;19.670;2023-03-23T12:27:43;5.25;;;3.63;;
22268;SDS011;11303;50.772;19.670;2023-03-23T12:32:32;8.57;;;3.20;;
22268;SDS011;11303;50.772;19.670;2023-03-23T12:39:29;5.95;;;3.60;;
22268;SDS011;11303;50.772;19.670;2023-03-23T12:43:50;5.22;;;2.97;;
22268;SDS011;11303;50.772;19.670;2023-03-23T12:46:00;3.92;;;2.42;;
22268;SDS011;11303;50.772;19.670;2023-03-23T12:48:05;7.15;;;2.63;;
22268;SDS011;11303;50.772;19.670;2023-03-23T12:50:13;5.00;;;2.72;;
22268;SDS011;11303;50.772;19.670;2023-03-23T12:52:19;7.65;;;2.70;;
22268;SDS011;11303;50.772;19.670;2023-03-23T12:56:31;3.78;;;2.70;;
22268;SDS011;11303;50.772;19.670;2023-03-23T12:58:34;5.65;;;2.38;;